ESNN/SDL METAR and TAF weather

Enter ICAO airport designator
Station Type Date Time Source
ESNN METAR 2022/08/12 15:50 UTC NOAA

ESNN 121550Z AUTO 14008KT 9999 FEW057/// 20/13 Q1022


Station Type Date Time Source
ESNN Decoded METAR 2022/08/12 15:50 UTC NOAA

Sundsvall-Harnosand Flygplats, Sweden (ESNN) 62-32N 017-27E 10M
Aug 12, 2022 - 11:50 AM EDT / 2022.08.12 1550 UTC
Wind: from the SE (140 degrees) at 9 MPH (8 KT):0
Visibility: greater than 7 mile(s):0
Sky conditions: mostly clear
Temperature: 68 F (20 C)
Dew Point: 55 F (13 C)
Relative Humidity: 64%
Pressure (altimeter): 30.18 in. Hg (1022 hPa)
ob: ESNN 121550Z AUTO 14008KT 9999 FEW057/// 20/13 Q1022
cycle: 16

Station Type Date Time Source
ESNN TAF 2016/05/29 09:33 UTC NOAA

TAF TAF ESNN 290830Z 2909/3018 07006KT 9999 SCT045
BECMG 2913/2915 14010KT

Example: see airport list